sensor_id;sensor_type;location;lat;lon;timestamp;P1;durP1;ratioP1;P2;durP2;ratioP2
11123;SDS011;5616;42.692;23.312;2023-03-31T00:00:24;11.37;;;7.33;;
11123;SDS011;5616;42.692;23.312;2023-03-31T00:02:53;10.53;;;7.17;;
11123;SDS011;5616;42.692;23.312;2023-03-31T00:05:20;12.77;;;7.60;;
11123;SDS011;5616;42.692;23.312;2023-03-31T00:07:51;12.57;;;6.90;;
11123;SDS011;5616;42.692;23.312;2023-03-31T00:10:19;12.47;;;7.73;;
11123;SDS011;5616;42.692;23.312;2023-03-31T00:12:46;12.70;;;7.63;;
11123;SDS011;5616;42.692;23.312;2023-03-31T00:15:13;10.77;;;7.37;;
11123;SDS011;5616;42.692;23.312;2023-03-31T00:17:40;11.80;;;7.33;;
11123;SDS011;5616;42.692;23.312;2023-03-31T00:20:09;10.80;;;7.13;;
11123;SDS011;5616;42.692;23.312;2023-03-31T00:22:36;11.17;;;6.93;;
11123;SDS011;5616;42.692;23.312;2023-03-31T00:25:07;10.73;;;7.00;;
11123;SDS011;5616;42.692;23.312;2023-03-31T00:27:35;11.67;;;7.27;;
11123;SDS011;5616;42.692;23.312;2023-03-31T00:30:02;12.43;;;7.57;;
11123;SDS011;5616;42.692;23.312;2023-03-31T00:32:29;12.40;;;7.63;;
11123;SDS011;5616;42.692;23.312;2023-03-31T00:34:57;12.70;;;7.93;;
11123;SDS011;5616;42.692;23.312;2023-03-31T00:37:28;12.27;;;7.73;;
11123;SDS011;5616;42.692;23.312;2023-03-31T00:39:55;14.50;;;7.67;;
11123;SDS011;5616;42.692;23.312;2023-03-31T00:42:22;11.63;;;7.33;;
11123;SDS011;5616;42.692;23.312;2023-03-31T00:47:48;12.77;;;7.63;;
11123;SDS011;5616;42.692;23.312;2023-03-31T00:50:20;12.20;;;7.60;;
11123;SDS011;5616;42.692;23.312;2023-03-31T00:52:50;13.70;;;7.87;;
11123;SDS011;5616;42.692;23.312;2023-03-31T00:55:22;15.87;;;7.03;;
11123;SDS011;5616;42.692;23.312;2023-03-31T00:57:53;11.90;;;7.20;;
11123;SDS011;5616;42.692;23.312;2023-03-31T01:00:22;11.50;;;6.67;;
11123;SDS011;5616;42.692;23.312;2023-03-31T01:02:50;10.13;;;6.47;;
11123;SDS011;5616;42.692;23.312;2023-03-31T01:05:21;9.63;;;6.30;;
11123;SDS011;5616;42.692;23.312;2023-03-31T01:07:52;12.13;;;6.93;;
11123;SDS011;5616;42.692;23.312;2023-03-31T01:10:21;10.53;;;6.53;;
11123;SDS011;5616;42.692;23.312;2023-03-31T01:12:48;9.50;;;5.70;;
11123;SDS011;5616;42.692;23.312;2023-03-31T01:15:19;10.33;;;6.23;;
11123;SDS011;5616;42.692;23.312;2023-03-31T01:17:46;7.17;;;5.17;;
11123;SDS011;5616;42.692;23.312;2023-03-31T01:20:16;11.27;;;5.63;;
11123;SDS011;5616;42.692;23.312;2023-03-31T01:23:03;10.40;;;5.40;;
11123;SDS011;5616;42.692;23.312;2023-03-31T01:26:00;9.27;;;5.53;;
11123;SDS011;5616;42.692;23.312;2023-03-31T01:28:52;8.47;;;6.20;;
11123;SDS011;5616;42.692;23.312;2023-03-31T01:31:38;11.97;;;6.70;;
11123;SDS011;5616;42.692;23.312;2023-03-31T01:40:30;14.13;;;7.87;;
11123;SDS011;5616;42.692;23.312;2023-03-31T01:43:05;10.60;;;6.97;;
11123;SDS011;5616;42.692;23.312;2023-03-31T01:45:40;12.67;;;7.20;;
11123;SDS011;5616;42.692;23.312;2023-03-31T01:48:15;11.00;;;6.83;;
11123;SDS011;5616;42.692;23.312;2023-03-31T01:50:48;9.90;;;6.43;;
11123;SDS011;5616;42.692;23.312;2023-03-31T01:53:22;13.10;;;6.57;;
11123;SDS011;5616;42.692;23.312;2023-03-31T01:55:59;10.90;;;6.37;;
11123;SDS011;5616;42.692;23.312;2023-03-31T01:58:31;9.97;;;6.17;;
11123;SDS011;5616;42.692;23.312;2023-03-31T02:01:04;9.30;;;5.47;;
11123;SDS011;5616;42.692;23.312;2023-03-31T02:03:38;9.27;;;6.20;;
11123;SDS011;5616;42.692;23.312;2023-03-31T02:06:11;9.17;;;5.93;;
11123;SDS011;5616;42.692;23.312;2023-03-31T02:08:42;11.83;;;6.00;;
11123;SDS011;5616;42.692;23.312;2023-03-31T02:11:13;8.93;;;6.63;;
11123;SDS011;5616;42.692;23.312;2023-03-31T02:13:40;10.50;;;6.50;;
11123;SDS011;5616;42.692;23.312;2023-03-31T02:16:11;11.63;;;6.17;;
11123;SDS011;5616;42.692;23.312;2023-03-31T02:18:43;8.20;;;5.83;;
11123;SDS011;5616;42.692;23.312;2023-03-31T02:21:12;11.07;;;6.93;;
11123;SDS011;5616;42.692;23.312;2023-03-31T02:23:42;10.70;;;6.70;;
11123;SDS011;5616;42.692;23.312;2023-03-31T02:26:11;12.52;;;7.20;;
11123;SDS011;5616;42.692;23.312;2023-03-31T02:28:43;9.40;;;6.47;;
11123;SDS011;5616;42.692;23.312;2023-03-31T02:31:12;11.73;;;6.30;;
11123;SDS011;5616;42.692;23.312;2023-03-31T02:33:51;9.53;;;6.40;;
11123;SDS011;5616;42.692;23.312;2023-03-31T02:36:18;8.90;;;5.93;;
11123;SDS011;5616;42.692;23.312;2023-03-31T02:38:47;8.97;;;5.30;;
11123;SDS011;5616;42.692;23.312;2023-03-31T02:41:20;9.33;;;5.67;;
11123;SDS011;5616;42.692;23.312;2023-03-31T02:43:48;10.00;;;6.23;;
11123;SDS011;5616;42.692;23.312;2023-03-31T02:46:15;12.07;;;6.50;;
11123;SDS011;5616;42.692;23.312;2023-03-31T02:48:42;11.77;;;5.90;;
11123;SDS011;5616;42.692;23.312;2023-03-31T03:00:07;12.50;;;7.20;;
11123;SDS011;5616;42.692;23.312;2023-03-31T03:02:47;11.07;;;6.33;;
11123;SDS011;5616;42.692;23.312;2023-03-31T03:05:29;9.23;;;5.30;;
11123;SDS011;5616;42.692;23.312;2023-03-31T03:08:39;4.70;;;2.97;;
11123;SDS011;5616;42.692;23.312;2023-03-31T03:11:20;6.10;;;3.57;;
11123;SDS011;5616;42.692;23.312;2023-03-31T03:13:53;3.83;;;2.80;;
11123;SDS011;5616;42.692;23.312;2023-03-31T03:16:29;3.63;;;2.70;;
11123;SDS011;5616;42.692;23.312;2023-03-31T03:19:02;5.57;;;2.43;;
11123;SDS011;5616;42.692;23.312;2023-03-31T03:21:30;2.47;;;2.13;;
11123;SDS011;5616;42.692;23.312;2023-03-31T03:23:57;4.13;;;2.27;;
11123;SDS011;5616;42.692;23.312;2023-03-31T03:26:26;3.27;;;2.03;;
11123;SDS011;5616;42.692;23.312;2023-03-31T03:28:53;5.03;;;2.47;;
11123;SDS011;5616;42.692;23.312;2023-03-31T03:31:21;5.80;;;3.00;;
11123;SDS011;5616;42.692;23.312;2023-03-31T03:33:51;5.57;;;3.57;;
11123;SDS011;5616;42.692;23.312;2023-03-31T03:36:18;7.93;;;3.53;;
11123;SDS011;5616;42.692;23.312;2023-03-31T03:38:47;4.47;;;3.20;;
11123;SDS011;5616;42.692;23.312;2023-03-31T03:41:14;5.40;;;3.30;;
11123;SDS011;5616;42.692;23.312;2023-03-31T03:43:40;5.50;;;3.50;;
11123;SDS011;5616;42.692;23.312;2023-03-31T03:46:07;5.10;;;3.77;;
11123;SDS011;5616;42.692;23.312;2023-03-31T03:48:34;5.33;;;3.97;;
11123;SDS011;5616;42.692;23.312;2023-03-31T03:51:02;6.83;;;3.90;;
11123;SDS011;5616;42.692;23.312;2023-03-31T03:53:30;5.57;;;3.63;;
11123;SDS011;5616;42.692;23.312;2023-03-31T03:55:57;5.70;;;3.87;;
11123;SDS011;5616;42.692;23.312;2023-03-31T03:58:25;5.87;;;4.23;;
11123;SDS011;5616;42.692;23.312;2023-03-31T04:00:52;9.13;;;4.13;;
11123;SDS011;5616;42.692;23.312;2023-03-31T04:03:19;8.50;;;4.10;;
11123;SDS011;5616;42.692;23.312;2023-03-31T04:05:46;7.70;;;3.77;;
11123;SDS011;5616;42.692;23.312;2023-03-31T04:08:16;6.80;;;3.77;;
11123;SDS011;5616;42.692;23.312;2023-03-31T04:10:43;7.43;;;3.30;;
11123;SDS011;5616;42.692;23.312;2023-03-31T04:13:12;7.97;;;3.73;;
11123;SDS011;5616;42.692;23.312;2023-03-31T04:15:39;9.30;;;4.07;;
11123;SDS011;5616;42.692;23.312;2023-03-31T04:18:05;9.07;;;3.53;;
11123;SDS011;5616;42.692;23.312;2023-03-31T04:20:35;8.67;;;3.33;;
11123;SDS011;5616;42.692;23.312;2023-03-31T04:23:02;10.27;;;3.60;;
11123;SDS011;5616;42.692;23.312;2023-03-31T04:25:31;7.60;;;3.77;;
11123;SDS011;5616;42.692;23.312;2023-03-31T04:27:58;4.33;;;3.17;;
11123;SDS011;5616;42.692;23.312;2023-03-31T04:30:25;5.17;;;3.17;;
11123;SDS011;5616;42.692;23.312;2023-03-31T04:32:55;5.97;;;3.03;;
11123;SDS011;5616;42.692;23.312;2023-03-31T04:35:25;6.83;;;3.30;;
11123;SDS011;5616;42.692;23.312;2023-03-31T04:38:13;7.07;;;3.90;;
11123;SDS011;5616;42.692;23.312;2023-03-31T04:40:44;11.20;;;3.40;;
11123;SDS011;5616;42.692;23.312;2023-03-31T04:43:12;5.37;;;3.37;;
11123;SDS011;5616;42.692;23.312;2023-03-31T04:45:39;7.93;;;3.70;;
11123;SDS011;5616;42.692;23.312;2023-03-31T04:48:07;9.63;;;3.90;;
11123;SDS011;5616;42.692;23.312;2023-03-31T04:50:34;8.60;;;3.40;;
11123;SDS011;5616;42.692;23.312;2023-03-31T04:53:01;7.37;;;3.83;;
11123;SDS011;5616;42.692;23.312;2023-03-31T04:55:29;7.30;;;3.87;;
11123;SDS011;5616;42.692;23.312;2023-03-31T04:57:57;5.97;;;3.40;;
11123;SDS011;5616;42.692;23.312;2023-03-31T05:00:24;8.20;;;4.07;;
11123;SDS011;5616;42.692;23.312;2023-03-31T05:02:53;6.33;;;3.60;;
11123;SDS011;5616;42.692;23.312;2023-03-31T05:05:19;7.47;;;3.87;;
11123;SDS011;5616;42.692;23.312;2023-03-31T05:07:46;8.00;;;3.53;;
11123;SDS011;5616;42.692;23.312;2023-03-31T05:10:13;7.70;;;4.20;;
11123;SDS011;5616;42.692;23.312;2023-03-31T05:12:40;7.57;;;3.80;;
11123;SDS011;5616;42.692;23.312;2023-03-31T05:15:09;7.77;;;3.57;;
11123;SDS011;5616;42.692;23.312;2023-03-31T05:17:36;6.63;;;3.70;;
11123;SDS011;5616;42.692;23.312;2023-03-31T05:20:04;8.47;;;3.77;;
11123;SDS011;5616;42.692;23.312;2023-03-31T05:22:33;9.23;;;4.23;;
11123;SDS011;5616;42.692;23.312;2023-03-31T05:25:00;6.70;;;4.27;;
11123;SDS011;5616;42.692;23.312;2023-03-31T05:27:28;10.03;;;4.90;;
11123;SDS011;5616;42.692;23.312;2023-03-31T05:29:55;8.90;;;5.57;;
11123;SDS011;5616;42.692;23.312;2023-03-31T05:32:24;9.23;;;5.40;;
11123;SDS011;5616;42.692;23.312;2023-03-31T05:34:51;11.33;;;5.20;;
11123;SDS011;5616;42.692;23.312;2023-03-31T05:37:21;7.90;;;5.00;;
11123;SDS011;5616;42.692;23.312;2023-03-31T05:39:49;13.77;;;6.73;;
11123;SDS011;5616;42.692;23.312;2023-03-31T05:42:16;9.47;;;5.33;;
11123;SDS011;5616;42.692;23.312;2023-03-31T05:44:44;11.43;;;6.77;;
11123;SDS011;5616;42.692;23.312;2023-03-31T05:47:11;9.50;;;5.90;;
11123;SDS011;5616;42.692;23.312;2023-03-31T05:49:40;14.53;;;8.17;;
11123;SDS011;5616;42.692;23.312;2023-03-31T05:52:07;14.33;;;8.17;;
11123;SDS011;5616;42.692;23.312;2023-03-31T05:54:34;18.40;;;8.40;;
11123;SDS011;5616;42.692;23.312;2023-03-31T05:57:01;12.87;;;7.27;;
11123;SDS011;5616;42.692;23.312;2023-03-31T05:59:28;23.13;;;9.83;;
11123;SDS011;5616;42.692;23.312;2023-03-31T06:01:55;21.60;;;10.43;;
11123;SDS011;5616;42.692;23.312;2023-03-31T06:04:22;13.57;;;8.00;;
11123;SDS011;5616;42.692;23.312;2023-03-31T06:06:50;12.47;;;6.50;;
11123;SDS011;5616;42.692;23.312;2023-03-31T06:09:18;16.07;;;6.43;;
11123;SDS011;5616;42.692;23.312;2023-03-31T06:11:45;12.33;;;6.50;;
11123;SDS011;5616;42.692;23.312;2023-03-31T06:14:12;10.10;;;6.00;;
11123;SDS011;5616;42.692;23.312;2023-03-31T06:16:39;18.97;;;8.10;;
11123;SDS011;5616;42.692;23.312;2023-03-31T06:19:06;14.37;;;8.07;;
11123;SDS011;5616;42.692;23.312;2023-03-31T06:21:33;19.60;;;8.07;;
11123;SDS011;5616;42.692;23.312;2023-03-31T06:24:01;11.37;;;6.90;;
11123;SDS011;5616;42.692;23.312;2023-03-31T06:26:28;8.47;;;5.37;;
11123;SDS011;5616;42.692;23.312;2023-03-31T06:28:55;11.03;;;5.90;;
11123;SDS011;5616;42.692;23.312;2023-03-31T06:31:22;13.73;;;6.10;;
11123;SDS011;5616;42.692;23.312;2023-03-31T06:33:50;13.00;;;5.60;;
11123;SDS011;5616;42.692;23.312;2023-03-31T06:36:18;14.37;;;5.00;;
11123;SDS011;5616;42.692;23.312;2023-03-31T06:38:45;11.33;;;5.90;;
11123;SDS011;5616;42.692;23.312;2023-03-31T06:41:14;11.97;;;5.50;;
11123;SDS011;5616;42.692;23.312;2023-03-31T06:43:42;14.30;;;4.37;;
11123;SDS011;5616;42.692;23.312;2023-03-31T06:46:09;4.43;;;2.10;;
11123;SDS011;5616;42.692;23.312;2023-03-31T06:48:36;9.97;;;2.60;;
11123;SDS011;5616;42.692;23.312;2023-03-31T06:51:03;7.20;;;2.70;;
11123;SDS011;5616;42.692;23.312;2023-03-31T06:53:32;7.40;;;2.80;;
11123;SDS011;5616;42.692;23.312;2023-03-31T06:55:59;5.77;;;2.33;;
11123;SDS011;5616;42.692;23.312;2023-03-31T06:58:29;3.60;;;2.43;;
11123;SDS011;5616;42.692;23.312;2023-03-31T07:00:56;5.37;;;2.43;;
11123;SDS011;5616;42.692;23.312;2023-03-31T07:03:22;6.97;;;2.20;;
11123;SDS011;5616;42.692;23.312;2023-03-31T07:05:50;8.93;;;2.53;;
11123;SDS011;5616;42.692;23.312;2023-03-31T07:08:17;7.47;;;2.50;;
11123;SDS011;5616;42.692;23.312;2023-03-31T07:10:45;7.40;;;2.57;;
11123;SDS011;5616;42.692;23.312;2023-03-31T07:13:13;7.77;;;2.70;;
11123;SDS011;5616;42.692;23.312;2023-03-31T07:15:41;8.23;;;2.43;;
11123;SDS011;5616;42.692;23.312;2023-03-31T07:18:08;4.23;;;2.70;;
11123;SDS011;5616;42.692;23.312;2023-03-31T07:20:36;3.80;;;2.53;;
11123;SDS011;5616;42.692;23.312;2023-03-31T07:23:04;4.07;;;2.30;;
11123;SDS011;5616;42.692;23.312;2023-03-31T07:25:31;4.30;;;2.90;;
11123;SDS011;5616;42.692;23.312;2023-03-31T07:27:58;7.63;;;2.57;;
11123;SDS011;5616;42.692;23.312;2023-03-31T07:30:25;4.27;;;2.80;;
11123;SDS011;5616;42.692;23.312;2023-03-31T07:32:53;7.30;;;3.30;;
11123;SDS011;5616;42.692;23.312;2023-03-31T07:35:20;4.83;;;2.97;;
11123;SDS011;5616;42.692;23.312;2023-03-31T07:37:48;5.37;;;3.00;;
11123;SDS011;5616;42.692;23.312;2023-03-31T07:40:16;8.07;;;3.33;;
11123;SDS011;5616;42.692;23.312;2023-03-31T07:42:45;10.77;;;3.27;;
11123;SDS011;5616;42.692;23.312;2023-03-31T07:45:13;7.83;;;3.03;;
11123;SDS011;5616;42.692;23.312;2023-03-31T07:47:41;8.13;;;3.20;;
11123;SDS011;5616;42.692;23.312;2023-03-31T07:50:11;11.47;;;3.50;;
11123;SDS011;5616;42.692;23.312;2023-03-31T07:52:39;16.13;;;3.70;;
11123;SDS011;5616;42.692;23.312;2023-03-31T07:55:06;14.03;;;3.40;;
11123;SDS011;5616;42.692;23.312;2023-03-31T07:57:33;18.00;;;4.73;;
11123;SDS011;5616;42.692;23.312;2023-03-31T08:00:01;11.47;;;3.00;;
11123;SDS011;5616;42.692;23.312;2023-03-31T08:02:37;5.43;;;2.73;;
11123;SDS011;5616;42.692;23.312;2023-03-31T08:05:05;6.53;;;2.70;;
11123;SDS011;5616;42.692;23.312;2023-03-31T08:07:34;5.17;;;3.00;;
11123;SDS011;5616;42.692;23.312;2023-03-31T08:10:02;5.73;;;2.37;;
11123;SDS011;5616;42.692;23.312;2023-03-31T08:12:30;8.37;;;2.77;;
11123;SDS011;5616;42.692;23.312;2023-03-31T08:14:56;6.87;;;2.80;;
11123;SDS011;5616;42.692;23.312;2023-03-31T08:17:23;15.73;;;3.60;;
11123;SDS011;5616;42.692;23.312;2023-03-31T08:19:50;7.00;;;2.80;;
11123;SDS011;5616;42.692;23.312;2023-03-31T08:22:17;5.73;;;2.33;;
11123;SDS011;5616;42.692;23.312;2023-03-31T08:24:46;9.10;;;2.70;;
11123;SDS011;5616;42.692;23.312;2023-03-31T08:27:13;6.57;;;2.30;;
11123;SDS011;5616;42.692;23.312;2023-03-31T08:29:41;8.27;;;2.83;;
11123;SDS011;5616;42.692;23.312;2023-03-31T08:32:07;6.07;;;2.73;;
11123;SDS011;5616;42.692;23.312;2023-03-31T08:34:34;6.87;;;2.70;;
11123;SDS011;5616;42.692;23.312;2023-03-31T08:37:02;11.20;;;3.00;;
11123;SDS011;5616;42.692;23.312;2023-03-31T08:39:29;5.97;;;2.10;;
11123;SDS011;5616;42.692;23.312;2023-03-31T08:41:59;5.53;;;2.33;;
11123;SDS011;5616;42.692;23.312;2023-03-31T08:44:29;5.67;;;2.33;;
11123;SDS011;5616;42.692;23.312;2023-03-31T08:47:01;5.10;;;2.50;;
11123;SDS011;5616;42.692;23.312;2023-03-31T08:49:31;10.10;;;2.90;;
11123;SDS011;5616;42.692;23.312;2023-03-31T08:52:04;7.83;;;2.73;;
11123;SDS011;5616;42.692;23.312;2023-03-31T08:54:38;7.47;;;2.60;;
11123;SDS011;5616;42.692;23.312;2023-03-31T08:57:11;5.47;;;2.40;;
11123;SDS011;5616;42.692;23.312;2023-03-31T08:59:44;11.23;;;2.60;;
11123;SDS011;5616;42.692;23.312;2023-03-31T09:02:14;6.07;;;2.30;;
11123;SDS011;5616;42.692;23.312;2023-03-31T09:04:49;12.40;;;2.90;;
11123;SDS011;5616;42.692;23.312;2023-03-31T09:07:26;10.47;;;2.50;;
11123;SDS011;5616;42.692;23.312;2023-03-31T09:10:02;10.37;;;2.70;;
11123;SDS011;5616;42.692;23.312;2023-03-31T09:12:45;10.77;;;2.10;;
11123;SDS011;5616;42.692;23.312;2023-03-31T09:15:22;4.67;;;2.17;;
11123;SDS011;5616;42.692;23.312;2023-03-31T09:17:52;12.87;;;2.63;;
11123;SDS011;5616;42.692;23.312;2023-03-31T09:20:22;9.33;;;2.53;;
11123;SDS011;5616;42.692;23.312;2023-03-31T09:22:54;5.93;;;2.23;;
11123;SDS011;5616;42.692;23.312;2023-03-31T09:25:27;9.70;;;2.20;;
11123;SDS011;5616;42.692;23.312;2023-03-31T09:28:01;4.60;;;2.10;;
11123;SDS011;5616;42.692;23.312;2023-03-31T09:30:30;9.60;;;2.27;;
11123;SDS011;5616;42.692;23.312;2023-03-31T09:33:02;16.83;;;3.20;;
11123;SDS011;5616;42.692;23.312;2023-03-31T09:35:36;10.30;;;2.60;;
11123;SDS011;5616;42.692;23.312;2023-03-31T09:38:04;9.17;;;2.50;;
11123;SDS011;5616;42.692;23.312;2023-03-31T09:40:31;6.87;;;2.37;;
11123;SDS011;5616;42.692;23.312;2023-03-31T09:42:59;11.50;;;2.70;;
11123;SDS011;5616;42.692;23.312;2023-03-31T09:45:30;8.60;;;2.53;;
11123;SDS011;5616;42.692;23.312;2023-03-31T09:47:59;2.63;;;1.80;;
11123;SDS011;5616;42.692;23.312;2023-03-31T09:50:30;3.40;;;2.20;;
11123;SDS011;5616;42.692;23.312;2023-03-31T09:53:01;8.60;;;2.30;;
11123;SDS011;5616;42.692;23.312;2023-03-31T09:55:35;4.00;;;2.00;;
11123;SDS011;5616;42.692;23.312;2023-03-31T09:58:13;4.90;;;2.07;;
11123;SDS011;5616;42.692;23.312;2023-03-31T10:00:42;5.70;;;2.10;;
11123;SDS011;5616;42.692;23.312;2023-03-31T10:03:21;5.63;;;2.20;;
11123;SDS011;5616;42.692;23.312;2023-03-31T10:05:50;6.93;;;2.37;;
11123;SDS011;5616;42.692;23.312;2023-03-31T10:08:19;7.03;;;2.57;;
11123;SDS011;5616;42.692;23.312;2023-03-31T10:10:52;3.47;;;1.80;;
11123;SDS011;5616;42.692;23.312;2023-03-31T10:13:23;6.53;;;2.03;;
11123;SDS011;5616;42.692;23.312;2023-03-31T10:15:53;5.40;;;2.07;;
11123;SDS011;5616;42.692;23.312;2023-03-31T10:18:30;3.70;;;2.10;;
11123;SDS011;5616;42.692;23.312;2023-03-31T10:20:59;10.77;;;2.33;;
11123;SDS011;5616;42.692;23.312;2023-03-31T10:23:29;11.97;;;2.63;;
11123;SDS011;5616;42.692;23.312;2023-03-31T10:25:57;3.00;;;1.73;;
11123;SDS011;5616;42.692;23.312;2023-03-31T10:28:27;3.53;;;1.67;;
11123;SDS011;5616;42.692;23.312;2023-03-31T10:30:58;4.77;;;2.33;;
11123;SDS011;5616;42.692;23.312;2023-03-31T10:33:27;8.03;;;2.30;;
11123;SDS011;5616;42.692;23.312;2023-03-31T10:35:59;7.47;;;2.20;;
11123;SDS011;5616;42.692;23.312;2023-03-31T10:38:28;5.43;;;1.90;;
11123;SDS011;5616;42.692;23.312;2023-03-31T10:40:58;6.40;;;2.17;;
11123;SDS011;5616;42.692;23.312;2023-03-31T10:43:27;7.90;;;2.53;;
11123;SDS011;5616;42.692;23.312;2023-03-31T10:45:55;3.43;;;1.93;;
11123;SDS011;5616;42.692;23.312;2023-03-31T10:48:24;3.77;;;2.00;;
11123;SDS011;5616;42.692;23.312;2023-03-31T10:50:53;4.57;;;1.80;;
11123;SDS011;5616;42.692;23.312;2023-03-31T10:53:20;5.87;;;2.20;;
11123;SDS011;5616;42.692;23.312;2023-03-31T10:55:55;3.90;;;2.23;;
11123;SDS011;5616;42.692;23.312;2023-03-31T10:58:35;5.60;;;2.33;;
11123;SDS011;5616;42.692;23.312;2023-03-31T11:01:18;5.47;;;2.40;;
11123;SDS011;5616;42.692;23.312;2023-03-31T11:04:01;5.90;;;2.20;;
11123;SDS011;5616;42.692;23.312;2023-03-31T11:06:47;5.00;;;2.30;;
11123;SDS011;5616;42.692;23.312;2023-03-31T11:09:26;7.00;;;2.60;;
11123;SDS011;5616;42.692;23.312;2023-03-31T11:12:03;4.20;;;2.40;;
11123;SDS011;5616;42.692;23.312;2023-03-31T11:14:42;4.73;;;2.23;;
11123;SDS011;5616;42.692;23.312;2023-03-31T11:17:21;5.60;;;2.30;;
11123;SDS011;5616;42.692;23.312;2023-03-31T11:19:58;4.50;;;1.80;;
11123;SDS011;5616;42.692;23.312;2023-03-31T11:22:36;5.93;;;2.13;;
11123;SDS011;5616;42.692;23.312;2023-03-31T11:25:18;2.87;;;1.63;;
11123;SDS011;5616;42.692;23.312;2023-03-31T11:27:54;4.40;;;1.93;;
11123;SDS011;5616;42.692;23.312;2023-03-31T11:30:31;6.27;;;2.07;;
11123;SDS011;5616;42.692;23.312;2023-03-31T11:33:09;3.80;;;1.90;;
11123;SDS011;5616;42.692;23.312;2023-03-31T11:35:50;7.73;;;2.07;;
11123;SDS011;5616;42.692;23.312;2023-03-31T11:38:34;7.23;;;2.20;;
11123;SDS011;5616;42.692;23.312;2023-03-31T11:41:12;4.20;;;2.00;;
11123;SDS011;5616;42.692;23.312;2023-03-31T11:43:42;5.70;;;1.80;;
11123;SDS011;5616;42.692;23.312;2023-03-31T11:46:16;7.43;;;2.10;;
11123;SDS011;5616;42.692;23.312;2023-03-31T11:48:46;6.90;;;2.27;;
11123;SDS011;5616;42.692;23.312;2023-03-31T11:51:18;7.93;;;2.33;;
11123;SDS011;5616;42.692;23.312;2023-03-31T11:53:49;6.00;;;2.10;;
11123;SDS011;5616;42.692;23.312;2023-03-31T11:56:19;4.97;;;2.23;;
11123;SDS011;5616;42.692;23.312;2023-03-31T11:58:50;5.00;;;2.00;;
11123;SDS011;5616;42.692;23.312;2023-03-31T12:01:22;6.57;;;2.10;;
11123;SDS011;5616;42.692;23.312;2023-03-31T12:03:55;4.57;;;2.40;;
11123;SDS011;5616;42.692;23.312;2023-03-31T12:06:27;4.33;;;1.83;;
11123;SDS011;5616;42.692;23.312;2023-03-31T12:09:01;5.03;;;1.83;;
11123;SDS011;5616;42.692;23.312;2023-03-31T12:11:34;7.77;;;2.43;;
11123;SDS011;5616;42.692;23.312;2023-03-31T12:14:13;26.83;;;3.67;;
11123;SDS011;5616;42.692;23.312;2023-03-31T12:16:51;5.40;;;2.03;;
11123;SDS011;5616;42.692;23.312;2023-03-31T12:19:21;7.63;;;2.00;;
11123;SDS011;5616;42.692;23.312;2023-03-31T12:21:54;4.33;;;1.90;;
11123;SDS011;5616;42.692;23.312;2023-03-31T12:24:24;3.97;;;2.00;;
11123;SDS011;5616;42.692;23.312;2023-03-31T12:26:54;6.23;;;2.10;;
11123;SDS011;5616;42.692;23.312;2023-03-31T12:29:29;6.97;;;1.90;;
11123;SDS011;5616;42.692;23.312;2023-03-31T12:32:00;4.07;;;1.90;;
11123;SDS011;5616;42.692;23.312;2023-03-31T12:34:30;6.10;;;1.87;;
11123;SDS011;5616;42.692;23.312;2023-03-31T12:37:15;3.87;;;1.80;;
11123;SDS011;5616;42.692;23.312;2023-03-31T12:39:56;2.70;;;1.80;;
11123;SDS011;5616;42.692;23.312;2023-03-31T12:45:26;6.47;;;1.87;;
11123;SDS011;5616;42.692;23.312;2023-03-31T12:48:14;4.03;;;2.10;;
11123;SDS011;5616;42.692;23.312;2023-03-31T12:51:01;6.83;;;2.30;;
11123;SDS011;5616;42.692;23.312;2023-03-31T12:53:38;6.27;;;1.80;;
11123;SDS011;5616;42.692;23.312;2023-03-31T12:56:15;4.87;;;1.93;;
11123;SDS011;5616;42.692;23.312;2023-03-31T12:58:43;7.00;;;2.07;;
11123;SDS011;5616;42.692;23.312;2023-03-31T13:01:12;5.70;;;2.07;;
11123;SDS011;5616;42.692;23.312;2023-03-31T13:03:49;5.73;;;1.80;;
11123;SDS011;5616;42.692;23.312;2023-03-31T13:09:38;5.63;;;2.00;;
11123;SDS011;5616;42.692;23.312;2023-03-31T13:12:12;6.33;;;2.00;;
11123;SDS011;5616;42.692;23.312;2023-03-31T13:14:41;2.73;;;1.80;;
11123;SDS011;5616;42.692;23.312;2023-03-31T13:17:11;7.70;;;1.90;;
11123;SDS011;5616;42.692;23.312;2023-03-31T13:19:41;5.73;;;1.90;;
11123;SDS011;5616;42.692;23.312;2023-03-31T13:22:26;5.27;;;2.63;;
11123;SDS011;5616;42.692;23.312;2023-03-31T13:27:58;5.33;;;2.13;;
11123;SDS011;5616;42.692;23.312;2023-03-31T13:30:44;7.17;;;2.27;;
11123;SDS011;5616;42.692;23.312;2023-03-31T13:33:13;8.43;;;2.10;;
11123;SDS011;5616;42.692;23.312;2023-03-31T13:35:44;4.20;;;2.33;;
11123;SDS011;5616;42.692;23.312;2023-03-31T13:38:15;4.47;;;2.10;;
11123;SDS011;5616;42.692;23.312;2023-03-31T13:41:02;3.97;;;1.87;;
11123;SDS011;5616;42.692;23.312;2023-03-31T13:43:54;6.40;;;2.00;;
11123;SDS011;5616;42.692;23.312;2023-03-31T13:46:50;7.40;;;1.97;;
11123;SDS011;5616;42.692;23.312;2023-03-31T13:49:50;5.53;;;2.30;;
11123;SDS011;5616;42.692;23.312;2023-03-31T13:52:32;5.43;;;2.30;;
11123;SDS011;5616;42.692;23.312;2023-03-31T13:55:14;5.97;;;2.40;;
11123;SDS011;5616;42.692;23.312;2023-03-31T14:01:04;6.27;;;1.90;;
11123;SDS011;5616;42.692;23.312;2023-03-31T14:03:47;5.13;;;1.80;;
11123;SDS011;5616;42.692;23.312;2023-03-31T14:06:26;3.07;;;1.60;;
11123;SDS011;5616;42.692;23.312;2023-03-31T14:09:04;5.27;;;2.10;;
11123;SDS011;5616;42.692;23.312;2023-03-31T14:11:34;5.37;;;1.73;;
11123;SDS011;5616;42.692;23.312;2023-03-31T14:14:02;5.23;;;2.47;;
11123;SDS011;5616;42.692;23.312;2023-03-31T14:16:32;3.93;;;1.80;;
11123;SDS011;5616;42.692;23.312;2023-03-31T14:19:06;3.27;;;1.90;;
11123;SDS011;5616;42.692;23.312;2023-03-31T14:21:47;3.70;;;1.67;;
11123;SDS011;5616;42.692;23.312;2023-03-31T14:24:24;7.13;;;2.53;;
11123;SDS011;5616;42.692;23.312;2023-03-31T14:27:00;5.47;;;2.13;;
11123;SDS011;5616;42.692;23.312;2023-03-31T14:29:38;3.20;;;1.60;;
11123;SDS011;5616;42.692;23.312;2023-03-31T14:32:13;4.63;;;1.90;;
11123;SDS011;5616;42.692;23.312;2023-03-31T14:34:56;6.17;;;2.00;;
11123;SDS011;5616;42.692;23.312;2023-03-31T14:37:33;6.97;;;2.30;;
11123;SDS011;5616;42.692;23.312;2023-03-31T14:40:02;5.27;;;2.00;;
11123;SDS011;5616;42.692;23.312;2023-03-31T14:42:31;6.97;;;1.70;;
11123;SDS011;5616;42.692;23.312;2023-03-31T14:45:05;6.83;;;2.00;;
11123;SDS011;5616;42.692;23.312;2023-03-31T14:47:41;5.93;;;2.27;;
11123;SDS011;5616;42.692;23.312;2023-03-31T14:50:11;6.87;;;2.27;;
11123;SDS011;5616;42.692;23.312;2023-03-31T14:52:45;7.27;;;2.20;;
11123;SDS011;5616;42.692;23.312;2023-03-31T14:55:14;4.13;;;1.97;;
11123;SDS011;5616;42.692;23.312;2023-03-31T14:57:41;7.07;;;2.20;;
11123;SDS011;5616;42.692;23.312;2023-03-31T15:00:13;3.80;;;2.00;;
11123;SDS011;5616;42.692;23.312;2023-03-31T15:02:43;7.73;;;2.10;;
11123;SDS011;5616;42.692;23.312;2023-03-31T15:05:14;3.97;;;2.10;;
11123;SDS011;5616;42.692;23.312;2023-03-31T15:07:47;6.77;;;2.33;;
11123;SDS011;5616;42.692;23.312;2023-03-31T15:10:17;6.73;;;2.30;;
11123;SDS011;5616;42.692;23.312;2023-03-31T15:12:46;3.70;;;2.10;;
11123;SDS011;5616;42.692;23.312;2023-03-31T15:15:14;5.27;;;2.20;;
11123;SDS011;5616;42.692;23.312;2023-03-31T15:17:42;2.93;;;2.00;;
11123;SDS011;5616;42.692;23.312;2023-03-31T15:20:25;6.50;;;2.50;;
11123;SDS011;5616;42.692;23.312;2023-03-31T15:22:55;4.57;;;2.37;;
11123;SDS011;5616;42.692;23.312;2023-03-31T15:25:25;4.63;;;2.53;;
11123;SDS011;5616;42.692;23.312;2023-03-31T15:27:55;5.67;;;2.40;;
11123;SDS011;5616;42.692;23.312;2023-03-31T15:30:25;8.37;;;2.57;;
11123;SDS011;5616;42.692;23.312;2023-03-31T15:32:54;6.20;;;2.67;;
11123;SDS011;5616;42.692;23.312;2023-03-31T15:35:21;4.60;;;2.23;;
11123;SDS011;5616;42.692;23.312;2023-03-31T15:37:51;6.30;;;2.50;;